^^
Station Historical Data
Daily Summary for March 21, 2017 Units:  English    Metric   Both
« Previous Day
Next Day »
Daily Weekly Monthly Yearly Custom
  High: Low: Average:
Temperature: 56.4 °F 36.1 °F 44.5 °F
Dew Point: 40.0 °F 27.8 °F 35.1 °F
Humidity: 88 % 50 % 71 %
Wind Speed: 9.8 mph 0.0 mph 1.8 mph
Wind Gust: 15.0 mph - -
Wind:- - WSW
Pressure: 30.04 in 29.87 in -
Precipitation: 0.03 in    
Historical Graphs
 
 
Tabular Data for March 21, 2017
Time Temperature Dew Point Pressure Wind Wind Speed Wind Gust Humidity Rainfall Rate (Hourly) solar Conditions
00:02 40.8 °F 28.0 °F 30.04 in Calm     60 % 0.00 in 0.0 W/m2 SCT
00:07 40.8 °F 28.0 °F 30.03 in Calm     60 % 0.00 in 0.0 W/m2 SCT
00:12 40.8 °F 28.0 °F 30.03 in Calm     60 % 0.00 in 0.0 W/m2 SCT
00:17 40.7 °F 27.9 °F 30.03 in Calm     60 % 0.00 in 0.0 W/m2 SCT
00:22 40.7 °F 27.9 °F 30.03 in Calm     60 % 0.00 in 0.0 W/m2 SCT
00:27 40.6 °F 27.8 °F 30.03 in Calm     60 % 0.00 in 0.0 W/m2 SCT
00:32 40.2 °F 27.8 °F 30.03 in Calm     61 % 0.00 in 0.0 W/m2 SCT
00:37 40.3 °F 28.3 °F 30.03 in Calm     62 % 0.00 in 0.0 W/m2 SCT
00:42 40.0 °F 28.0 °F 30.03 in Calm     62 % 0.00 in 0.0 W/m2 SCT
00:47 39.8 °F 28.2 °F 30.03 in Calm     63 % 0.00 in 0.0 W/m2 SCT
00:52 39.5 °F 28.3 °F 30.02 in Calm     64 % 0.00 in 0.0 W/m2 SCT
00:58 39.6 °F 28.4 °F 30.02 in Calm     64 % 0.00 in 0.0 W/m2 SCT
01:03 39.6 °F 28.4 °F 30.02 in Calm     64 % 0.00 in 0.0 W/m2 SCT
01:08 39.6 °F 28.4 °F 30.02 in Calm     64 % 0.00 in 0.0 W/m2 SCT
01:13 39.4 °F 28.2 °F 30.02 in Calm     64 % 0.00 in 0.0 W/m2 SCT
01:18 39.2 °F 28.0 °F 30.02 in Calm     64 % 0.00 in 0.0 W/m2 SCT
01:23 39.3 °F 28.5 °F 30.02 in Calm     65 % 0.00 in 0.0 W/m2 SCT
01:28 39.1 °F 28.3 °F 30.01 in Calm     65 % 0.00 in 0.0 W/m2 SCT
01:33 39.0 °F 28.2 °F 30.01 in Calm     65 % 0.00 in 0.0 W/m2 SCT
01:38 39.0 °F 28.2 °F 30.01 in Calm     65 % 0.00 in 0.0 W/m2 SCT
01:43 38.9 °F 28.5 °F 30.01 in Calm     66 % 0.00 in 0.0 W/m2 SCT
01:48 38.7 °F 28.3 °F 30.02 in Calm   1.2 mph 66 % 0.00 in 0.0 W/m2 SCT
01:49 38.8 °F 28.4 °F 30.01 in WSW 1.5 mph 1.5 mph 66 % 0.00 in 0.0 W/m2 SCT
01:54 39.0 °F 28.6 °F 30.01 in Calm     66 % 0.00 in 0.0 W/m2 SCT
01:59 39.0 °F 28.6 °F 30.01 in West 1.0 mph   66 % 0.00 in 0.0 W/m2 SCT
02:04 39.2 °F 28.4 °F 30.01 in Calm     65 % 0.00 in 0.0 W/m2 SCT
02:09 39.3 °F 28.5 °F 30.01 in West 0.2 mph 2.3 mph 65 % 0.00 in 0.0 W/m2 SCT
02:14 39.4 °F 28.2 °F 30.01 in West 0.6 mph 3.5 mph 64 % 0.00 in 0.0 W/m2 SCT
02:19 39.4 °F 28.6 °F 30.01 in Calm   2.3 mph 65 % 0.00 in 0.0 W/m2 SCT
02:25 39.3 °F 28.1 °F 30.00 in Calm   2.0 mph 64 % 0.00 in 0.0 W/m2 CLR
02:30 39.2 °F 28.0 °F 30.00 in Calm     64 % 0.00 in 0.0 W/m2 SCT
02:35 39.1 °F 27.9 °F 30.00 in Calm   3.0 mph 64 % 0.00 in 0.0 W/m2 CLR
02:40 39.1 °F 28.3 °F 30.00 in Calm   2.0 mph 65 % 0.00 in 0.0 W/m2 CLR
02:45 39.0 °F 28.6 °F 30.00 in WSW 0.3 mph 3.5 mph 66 % 0.00 in 0.0 W/m2 SCT
02:50 39.0 °F 28.6 °F 30.00 in WSW 0.1 mph 1.2 mph 66 % 0.00 in 0.0 W/m2 SCT
02:55 39.1 °F 28.3 °F 29.99 in Calm     65 % 0.00 in 0.0 W/m2 SCT
03:00 39.1 °F 28.3 °F 29.99 in Calm     65 % 0.00 in 0.0 W/m2 SCT
03:05 39.1 °F 28.3 °F 29.99 in Calm     65 % 0.00 in 0.0 W/m2 SCT
03:10 39.1 °F 28.3 °F 29.99 in Calm     65 % 0.00 in 0.0 W/m2 SCT
03:15 39.1 °F 28.3 °F 29.99 in Calm     65 % 0.00 in 0.0 W/m2 SCT
03:20 39.0 °F 28.6 °F 29.99 in Calm     66 % 0.00 in 0.0 W/m2 SCT
03:25 39.0 °F 28.6 °F 29.99 in Calm     66 % 0.00 in 0.0 W/m2 SCT
03:30 38.9 °F 29.2 °F 29.98 in SW 1.1 mph 3.5 mph 68 % 0.00 in 0.0 W/m2 SCT
03:35 38.7 °F 29.8 °F 29.98 in Calm     70 % 0.00 in 0.0 W/m2 SCT
03:40 38.4 °F 29.8 °F 29.98 in SW 0.4 mph 2.3 mph 71 % 0.00 in 0.0 W/m2 SCT
03:45 38.1 °F 29.9 °F 29.98 in Calm     72 % 0.00 in 0.0 W/m2 SCT
03:50 38.0 °F 30.1 °F 29.98 in Calm     73 % 0.01 in 0.0 W/m2 RA
03:55 37.8 °F 30.6 °F 29.98 in Calm   2.3 mph 75 % 0.01 in 0.0 W/m2 RA
04:00 37.7 °F 30.8 °F 29.98 in SW 0.8 mph 3.5 mph 76 % 0.01 in 0.0 W/m2 SCT
04:05 37.6 °F 31.0 °F 29.98 in WSW 0.3 mph 2.0 mph 77 % 0.01 in 0.0 W/m2 SCT
04:10 37.3 °F 31.1 °F 29.98 in Calm     78 % 0.01 in 0.0 W/m2 SCT
04:15 37.2 °F 31.6 °F 29.97 in WSW 0.2 mph 3.0 mph 80 % 0.02 in 0.0 W/m2 RA
04:20 37.0 °F 31.7 °F 29.97 in WSW 0.1 mph 1.2 mph 81 % 0.02 in 0.0 W/m2 RA
04:25 36.8 °F 31.5 °F 29.97 in SW 1.2 mph 3.5 mph 81 % 0.02 in 0.0 W/m2 SCT
04:30 36.7 °F 32.0 °F 29.97 in WSW 1.0 mph 2.0 mph 83 % 0.02 in 0.0 W/m2 SCT
04:35 36.5 °F 31.8 °F 29.96 in WSW 0.7 mph 1.2 mph 83 % 0.02 in 0.0 W/m2 SCT
04:40 36.4 °F 31.7 °F 29.96 in Calm     83 % 0.02 in 0.0 W/m2 SCT
04:45 36.4 °F 32.0 °F 29.96 in Calm     84 % 0.02 in 0.0 W/m2 SCT
04:50 36.4 °F 32.0 °F 29.96 in Calm     84 % 0.01 in 0.0 W/m2 SCT
04:51 36.4 °F 32.0 °F 29.96 in Calm     84 % 0.01 in 0.0 W/m2 SCT
04:56 36.7 °F 32.6 °F 29.96 in Calm     85 % 0.02 in 0.0 W/m2 RA
05:01 36.5 °F 32.7 °F 29.96 in Calm     86 % 0.02 in 0.0 W/m2 RA
05:06 36.3 °F 32.5 °F 29.95 in Calm     86 % 0.02 in 0.0 W/m2 SCT
05:11 36.2 °F 32.7 °F 29.95 in Calm     87 % 0.01 in 0.0 W/m2 SCT
05:16 36.3 °F 32.8 °F 29.96 in Calm     87 % 0.01 in 0.0 W/m2 SCT
05:21 36.3 °F 32.8 °F 29.96 in Calm     87 % 0.01 in 0.0 W/m2 SCT
05:26 36.2 °F 32.7 °F 29.97 in WSW 0.5 mph 1.2 mph 87 % 0.01 in 0.0 W/m2 SCT
05:31 36.1 °F 32.9 °F 29.97 in Calm     88 % 0.01 in 0.0 W/m2 SCT
05:36 36.3 °F 33.1 °F 29.97 in WSW 0.2 mph   88 % 0.01 in 0.0 W/m2 SCT
05:41 36.4 °F 33.2 °F 29.96 in Calm   1.2 mph 88 % 0.01 in 0.0 W/m2 SCT
05:46 36.5 °F 33.3 °F 29.96 in Calm     88 % 0.01 in 0.0 W/m2 SCT
05:51 36.5 °F 33.3 °F 29.96 in WSW 1.3 mph 3.5 mph 88 % 0.01 in 0.0 W/m2 SCT
05:56 36.6 °F 33.4 °F 29.96 in WSW 1.4 mph 4.6 mph 88 % 0.00 in 0.0 W/m2 SCT
06:01 36.6 °F 33.4 °F 29.97 in Calm     88 % 0.00 in 0.0 W/m2 SCT
06:06 36.6 °F 33.4 °F 29.96 in Calm     88 % 0.00 in 0.0 W/m2 SCT
06:11 36.6 °F 33.4 °F 29.96 in WSW 0.2 mph 2.3 mph 88 % 0.00 in 0.0 W/m2 SCT
06:16 36.6 °F 33.4 °F 29.97 in WSW 1.0 mph 2.3 mph 88 % 0.00 in 0.0 W/m2 SCT
06:21 36.6 °F 33.4 °F 29.97 in Calm   3.5 mph 88 % 0.00 in 0.0 W/m2 SCT
06:26 36.6 °F 33.4 °F 29.96 in West 0.4 mph   88 % 0.00 in 0.0 W/m2 SCT
06:31 36.6 °F 33.4 °F 29.96 in West 0.2 mph 2.3 mph 88 % 0.00 in 0.0 W/m2 SCT
06:36 36.7 °F 33.5 °F 29.96 in WSW 2.0 mph 3.5 mph 88 % 0.00 in 0.0 W/m2 SCT
06:41 36.7 °F 33.5 °F 29.96 in Calm   2.3 mph 88 % 0.00 in 0.0 W/m2 SCT
06:46 36.8 °F 33.6 °F 29.96 in SW 0.1 mph 2.3 mph 88 % 0.00 in 0.0 W/m2 SCT
06:51 36.8 °F 33.6 °F 29.96 in SW 0.2 mph   88 % 0.00 in 0.0 W/m2 SCT
06:56 37.0 °F 33.8 °F 29.96 in SW 0.1 mph   88 % 0.00 in 0.0 W/m2 SCT
07:01 37.0 °F 33.8 °F 29.97 in WSW 1.0 mph   88 % 0.00 in 0.0 W/m2 SCT
07:06 36.9 °F 33.7 °F 29.97 in West 0.4 mph 5.8 mph 88 % 0.00 in 0.0 W/m2 SCT
07:11 36.9 °F 33.7 °F 29.97 in Calm     88 % 0.00 in 0.0 W/m2 SCT
07:16 36.9 °F 33.7 °F 29.97 in Calm     88 % 0.00 in 5.0 W/m2 SCT
07:17 37.0 °F 33.8 °F 29.97 in Calm     88 % 0.00 in 7.0 W/m2 SCT
07:22 37.1 °F 33.9 °F 29.97 in West 0.2 mph 3.5 mph 88 % 0.00 in 11.0 W/m2 SCT
07:27 37.1 °F 33.9 °F 29.97 in Calm     88 % 0.00 in 14.0 W/m2 SCT
07:32 37.3 °F 34.1 °F 29.97 in Calm   1.2 mph 88 % 0.00 in 16.0 W/m2 SCT
07:37 37.3 °F 33.8 °F 29.97 in WSW 0.6 mph 2.3 mph 87 % 0.00 in 19.0 W/m2 SCT
07:42 37.3 °F 34.1 °F 29.97 in West 0.2 mph 2.3 mph 88 % 0.00 in 25.0 W/m2 SCT
07:47 37.3 °F 33.8 °F 29.97 in West 1.1 mph 3.5 mph 87 % 0.00 in 26.0 W/m2 SCT
07:52 37.4 °F 33.9 °F 29.97 in West 0.8 mph 3.5 mph 87 % 0.00 in 30.0 W/m2 BKN
07:57 37.6 °F 34.4 °F 29.97 in West 0.3 mph 2.3 mph 88 % 0.00 in 28.0 W/m2 BKN
08:02 37.8 °F 34.3 °F 29.97 in Calm     87 % 0.00 in 35.0 W/m2 BKN
08:07 37.8 °F 34.3 °F 29.97 in West 0.3 mph 3.5 mph 87 % 0.00 in 40.0 W/m2 BKN
08:12 37.8 °F 34.3 °F 29.97 in West 2.2 mph 3.5 mph 87 % 0.00 in 46.0 W/m2 BKN
08:17 37.8 °F 34.3 °F 29.97 in WSW 0.9 mph 3.5 mph 87 % 0.00 in 58.0 W/m2 BKN
08:22 37.8 °F 34.3 °F 29.97 in Calm     87 % 0.00 in 65.0 W/m2 BKN
08:27 38.0 °F 34.5 °F 29.97 in Calm     87 % 0.00 in 81.0 W/m2 SCT
08:32 38.2 °F 34.7 °F 29.97 in Calm   1.2 mph 87 % 0.00 in 83.0 W/m2 BKN
08:37 38.3 °F 34.8 °F 29.97 in Calm     87 % 0.00 in 83.0 W/m2 BKN
08:42 38.4 °F 34.9 °F 29.97 in Calm     87 % 0.00 in 79.0 W/m2 BKN
08:47 38.6 °F 34.8 °F 29.97 in Calm     86 % 0.00 in 88.0 W/m2 BKN
08:52 38.7 °F 34.9 °F 29.97 in Calm     86 % 0.00 in 100.0 W/m2 BKN
08:57 38.8 °F 35.0 °F 29.96 in WSW 0.7 mph 2.3 mph 86 % 0.00 in 142.0 W/m2 SCT
09:02 39.0 °F 35.2 °F 29.96 in WSW 0.6 mph 2.3 mph 86 % 0.00 in 113.0 W/m2 BKN
09:07 39.2 °F 35.1 °F 29.97 in WSW 2.1 mph 4.6 mph 85 % 0.00 in 121.0 W/m2 BKN
09:12 39.1 °F 35.0 °F 29.97 in West 2.3 mph 5.8 mph 85 % 0.00 in 109.0 W/m2 BKN
09:17 39.2 °F 35.1 °F 29.97 in WSW 2.4 mph 6.9 mph 85 % 0.00 in 130.0 W/m2 BKN
09:22 39.2 °F 34.8 °F 29.98 in WSW 3.0 mph 3.5 mph 84 % 0.00 in 151.0 W/m2 SCT
09:27 39.3 °F 34.9 °F 29.98 in West 3.8 mph 6.0 mph 84 % 0.00 in 169.0 W/m2 SCT
09:32 39.6 °F 35.5 °F 29.98 in Calm     85 % 0.00 in 141.0 W/m2 BKN
09:37 39.8 °F 35.4 °F 29.98 in WSW 2.1 mph 5.8 mph 84 % 0.00 in 141.0 W/m2 BKN
09:42 39.6 °F 35.2 °F 29.98 in West 2.7 mph 6.9 mph 84 % 0.00 in 172.0 W/m2 BKN
09:47 39.6 °F 35.2 °F 29.98 in West 1.1 mph 3.5 mph 84 % 0.00 in 185.0 W/m2 SCT
09:52 39.8 °F 35.4 °F 29.98 in WSW 0.4 mph 2.0 mph 84 % 0.00 in 148.0 W/m2 BKN
09:57 40.1 °F 35.7 °F 29.98 in WSW 0.1 mph 1.2 mph 84 % 0.00 in 209.0 W/m2 BKN
10:02 40.3 °F 35.5 °F 29.98 in West 2.4 mph 2.4 mph 83 % 0.00 in 148.0 W/m2 BKN
10:04 40.2 °F 35.4 °F 29.98 in West 1.7 mph 3.5 mph 83 % 0.00 in 135.0 W/m2 BKN
10:09 40.1 °F 35.4 °F 29.99 in West 2.0 mph 6.0 mph 83 % 0.00 in 155.0 W/m2 BKN
10:14 40.2 °F 35.4 °F 29.98 in SW 1.7 mph 2.0 mph 83 % 0.00 in 163.0 W/m2 BKN
10:19 40.3 °F 35.5 °F 29.98 in WSW 3.8 mph 4.6 mph 83 % 0.00 in 199.0 W/m2 BKN
10:24 40.4 °F 35.6 °F 29.98 in West 2.6 mph 3.5 mph 83 % 0.00 in 207.0 W/m2 BKN
10:29 40.7 °F 35.6 °F 29.98 in WSW 2.4 mph 5.8 mph 82 % 0.00 in 223.0 W/m2 BKN
10:34 41.1 °F 36.0 °F 29.98 in West 0.5 mph 3.0 mph 82 % 0.00 in 236.0 W/m2 BKN
10:39 41.4 °F 36.0 °F 29.98 in Calm   2.3 mph 81 % 0.00 in 253.0 W/m2 BKN
10:44 41.7 °F 36.3 °F 29.98 in West 0.2 mph 2.0 mph 81 % 0.00 in 265.0 W/m2 SCT
10:49 41.7 °F 36.3 °F 29.98 in West 0.6 mph 3.5 mph 81 % 0.00 in 290.0 W/m2 SCT
10:54 41.8 °F 36.1 °F 29.98 in WSW 1.3 mph 3.5 mph 80 % 0.00 in 330.0 W/m2 SCT
10:59 42.3 °F 36.6 °F 29.98 in Calm     80 % 0.00 in 308.0 W/m2 SCT
11:04 42.9 °F 37.2 °F 29.98 in SW 1.9 mph 4.0 mph 80 % 0.00 in 350.0 W/m2 SCT
11:09 42.9 °F 36.5 °F 29.98 in WSW 2.0 mph 4.6 mph 78 % 0.00 in 341.0 W/m2 SCT
11:14 43.0 °F 36.6 °F 29.98 in SW 2.5 mph 3.5 mph 78 % 0.00 in 396.0 W/m2 SCT
11:20 43.2 °F 37.1 °F 29.98 in SW 0.4 mph 2.3 mph 79 % 0.00 in 346.0 W/m2 SCT
11:25 43.3 °F 36.9 °F 29.98 in SW 1.5 mph 3.5 mph 78 % 0.00 in 431.0 W/m2 SCT
11:30 43.7 °F 37.3 °F 29.98 in SSW 3.9 mph 3.9 mph 78 % 0.00 in 710.0 W/m2 CLR
11:35 44.2 °F 37.4 °F 29.98 in WSW 2.1 mph 5.8 mph 77 % 0.00 in 677.0 W/m2 CLR
11:40 44.4 °F 37.3 °F 29.98 in SW 1.0 mph 5.0 mph 76 % 0.00 in 668.0 W/m2 CLR
11:45 44.4 °F 37.0 °F 29.97 in SW 3.8 mph 5.8 mph 75 % 0.00 in 708.0 W/m2 CLR
11:50 44.9 °F 37.5 °F 29.98 in SW 6.0 mph 8.0 mph 75 % 0.00 in 717.0 W/m2 CLR
11:55 44.9 °F 37.1 °F 29.98 in SW 3.0 mph 8.0 mph 74 % 0.00 in 724.0 W/m2 CLR
12:00 45.7 °F 37.5 °F 29.98 in WSW 1.6 mph 6.9 mph 73 % 0.00 in 742.0 W/m2 CLR
12:05 45.9 °F 37.4 °F 29.98 in WSW 2.1 mph 6.9 mph 72 % 0.00 in 770.0 W/m2 CLR
12:10 46.3 °F 37.4 °F 29.98 in SW 3.2 mph 5.8 mph 71 % 0.00 in 731.0 W/m2 CLR
12:15 46.5 °F 37.6 °F 29.97 in West 4.8 mph 6.9 mph 71 % 0.00 in 744.0 W/m2 CLR
12:20 46.2 °F 37.0 °F 29.97 in SSW 7.4 mph 9.2 mph 70 % 0.00 in 738.0 W/m2 CLR
12:25 46.3 °F 37.0 °F 29.97 in West 4.9 mph 8.0 mph 70 % 0.00 in 715.0 W/m2 CLR
12:30 46.7 °F 37.4 °F 29.97 in SSW 4.1 mph 6.9 mph 70 % 0.00 in 761.0 W/m2 CLR
12:35 46.5 °F 36.9 °F 29.96 in SW 5.9 mph 8.1 mph 69 % 0.00 in 747.0 W/m2 CLR
12:40 46.9 °F 37.6 °F 29.96 in SW 5.7 mph 9.0 mph 70 % 0.00 in 791.0 W/m2 CLR
12:45 47.1 °F 37.4 °F 29.97 in WSW 6.7 mph 9.2 mph 69 % 0.00 in 800.0 W/m2 CLR
12:50 47.0 °F 37.0 °F 29.96 in WSW 7.7 mph 10.4 mph 68 % 0.00 in 738.0 W/m2 CLR
12:55 47.5 °F 37.5 °F 29.96 in SW 5.8 mph 9.2 mph 68 % 0.00 in 819.0 W/m2 CLR
13:00 48.2 °F 38.1 °F 29.96 in WSW 4.0 mph 10.0 mph 68 % 0.00 in 754.0 W/m2 CLR
13:05 48.0 °F 37.6 °F 29.96 in SW 4.3 mph 6.9 mph 67 % 0.00 in 751.0 W/m2 CLR
13:10 48.4 °F 38.3 °F 29.95 in WNW 4.0 mph 5.8 mph 68 % 0.00 in 763.0 W/m2 CLR
13:15 48.6 °F 37.7 °F 29.95 in SSW 7.0 mph 9.2 mph 66 % 0.00 in 796.0 W/m2 CLR
13:20 48.4 °F 37.6 °F 29.95 in West 4.2 mph 10.4 mph 66 % 0.00 in 789.0 W/m2 CLR
13:25 48.7 °F 37.8 °F 29.95 in SW 7.6 mph 10.4 mph 66 % 0.00 in 786.0 W/m2 CLR
13:30 48.8 °F 37.9 °F 29.94 in WSW 3.2 mph 6.9 mph 66 % 0.00 in 701.0 W/m2 CLR
13:32 49.0 °F 38.1 °F 29.94 in WSW 3.6 mph 4.6 mph 66 % 0.00 in 670.0 W/m2 CLR
13:37 49.7 °F 38.8 °F 29.94 in West 6.6 mph 8.1 mph 66 % 0.00 in 722.0 W/m2 CLR
13:42 50.2 °F 38.9 °F 29.94 in SW 3.4 mph 5.8 mph 65 % 0.00 in 842.0 W/m2 CLR
13:47 50.5 °F 38.8 °F 29.94 in SW 6.4 mph 11.5 mph 64 % 0.00 in 721.0 W/m2 CLR
13:52 49.9 °F 38.2 °F 29.94 in SW 5.0 mph 11.5 mph 64 % 0.00 in 766.0 W/m2 CLR
13:57 50.6 °F 38.9 °F 29.93 in SSW 4.0 mph 7.0 mph 64 % 0.00 in 759.0 W/m2 CLR
14:02 50.5 °F 38.4 °F 29.93 in SSW 4.6 mph 11.5 mph 63 % 0.00 in 800.0 W/m2 CLR
14:07 50.3 °F 38.6 °F 29.93 in SW 5.1 mph 11.5 mph 64 % 0.00 in 791.0 W/m2 CLR
14:12 50.5 °F 38.4 °F 29.93 in WSW 4.4 mph 13.0 mph 63 % 0.00 in 772.0 W/m2 CLR
14:17 50.8 °F 39.1 °F 29.93 in WSW 6.3 mph 10.0 mph 64 % 0.00 in 765.0 W/m2 CLR
14:18 50.8 °F 39.1 °F 29.92 in WSW 8.8 mph 13.8 mph 64 % 0.00 in 768.0 W/m2 CLR
14:23 51.0 °F 39.2 °F 29.92 in WSW 2.1 mph 9.2 mph 64 % 0.00 in 770.0 W/m2 CLR
14:28 51.1 °F 38.9 °F 29.93 in SW 7.4 mph 11.5 mph 63 % 0.00 in 733.0 W/m2 CLR
14:33 51.0 °F 38.8 °F 29.92 in WSW 8.9 mph 12.7 mph 63 % 0.00 in 715.0 W/m2 CLR
14:38 51.0 °F 38.8 °F 29.92 in SSW 9.8 mph 12.7 mph 63 % 0.00 in 703.0 W/m2 CLR
14:43 51.6 °F 39.4 °F 29.92 in SW 7.4 mph 11.5 mph 63 % 0.00 in 714.0 W/m2 CLR
14:48 52.0 °F 39.4 °F 29.92 in WSW 7.1 mph 11.5 mph 62 % 0.00 in 717.0 W/m2 CLR
14:53 51.9 °F 39.3 °F 29.92 in WSW 5.5 mph 10.4 mph 62 % 0.00 in 726.0 W/m2 CLR
14:58 52.1 °F 39.1 °F 29.91 in SSW 8.7 mph 13.8 mph 61 % 0.00 in 705.0 W/m2 CLR
15:03 52.5 °F 39.4 °F 29.91 in SW 6.2 mph 11.5 mph 61 % 0.00 in 707.0 W/m2 CLR
15:08 52.9 °F 39.8 °F 29.90 in West 1.1 mph 4.6 mph 61 % 0.00 in 705.0 W/m2 CLR
15:13 53.6 °F 39.6 °F 29.90 in SW 3.6 mph 6.9 mph 59 % 0.00 in 691.0 W/m2 CLR
15:18 54.2 °F 39.7 °F 29.90 in SSW 2.5 mph 6.9 mph 58 % 0.00 in 673.0 W/m2 CLR
15:23 53.9 °F 39.5 °F 29.90 in SW 2.1 mph 5.8 mph 58 % 0.00 in 659.0 W/m2 CLR
15:28 53.9 °F 39.5 °F 29.89 in South 7.6 mph 11.0 mph 58 % 0.00 in 650.0 W/m2 CLR
15:34 54.1 °F 39.6 °F 29.89 in SW 3.8 mph 11.5 mph 58 % 0.00 in 642.0 W/m2 CLR
15:39 54.5 °F 40.0 °F 29.89 in West 2.0 mph 5.8 mph 58 % 0.00 in 631.0 W/m2 CLR
15:44 54.8 °F 39.4 °F 29.89 in WSW 1.8 mph 3.5 mph 56 % 0.00 in 613.0 W/m2 CLR
15:49 54.8 °F 39.4 °F 29.89 in SSW 6.6 mph 10.4 mph 56 % 0.00 in 601.0 W/m2 CLR
15:54 55.0 °F 39.1 °F 29.89 in SW 8.1 mph 13.0 mph 55 % 0.00 in 587.0 W/m2 CLR
15:59 55.0 °F 39.1 °F 29.89 in WSW 2.2 mph 4.0 mph 55 % 0.00 in 570.0 W/m2 CLR
16:04 54.9 °F 38.6 °F 29.89 in WSW 7.4 mph 12.7 mph 54 % 0.00 in 561.0 W/m2 CLR
16:09 55.5 °F 39.1 °F 29.89 in WSW 3.4 mph 6.9 mph 54 % 0.00 in 543.0 W/m2 CLR
16:14 55.5 °F 38.1 °F 29.88 in SSW 6.1 mph 11.5 mph 52 % 0.00 in 520.0 W/m2 CLR
16:19 55.7 °F 38.3 °F 29.88 in South 3.7 mph 6.9 mph 52 % 0.00 in 452.0 W/m2 CLR
16:24 55.6 °F 38.2 °F 29.88 in SW 2.3 mph 5.8 mph 52 % 0.00 in 499.0 W/m2 CLR
16:29 55.8 °F 38.4 °F 29.88 in SW 3.1 mph 11.5 mph 52 % 0.00 in 476.0 W/m2 CLR
16:34 55.7 °F 37.8 °F 29.88 in SW 5.6 mph 12.0 mph 51 % 0.00 in 446.0 W/m2 CLR
16:39 55.7 °F 38.3 °F 29.88 in SSW 4.6 mph 9.2 mph 52 % 0.00 in 443.0 W/m2 CLR
16:44 55.7 °F 38.3 °F 29.87 in SSW 9.7 mph 12.0 mph 52 % 0.00 in 425.0 W/m2 CLR
16:49 55.8 °F 38.4 °F 29.87 in WSW 4.9 mph 8.1 mph 52 % 0.00 in 410.0 W/m2 CLR
16:54 56.1 °F 39.2 °F 29.87 in SW 2.0 mph 4.0 mph 53 % 0.00 in 406.0 W/m2 CLR
16:59 56.4 °F 38.0 °F 29.87 in SSW 2.7 mph 6.9 mph 50 % 0.00 in 394.0 W/m2 CLR
17:04 56.0 °F 38.1 °F 29.87 in WSW 2.3 mph 5.8 mph 51 % 0.00 in 371.0 W/m2 CLR
17:09 56.0 °F 38.6 °F 29.87 in SW 4.0 mph 8.1 mph 52 % 0.00 in 341.0 W/m2 CLR
17:14 55.8 °F 37.9 °F 29.88 in SSW 5.2 mph 9.2 mph 51 % 0.00 in 336.0 W/m2 CLR
17:19 56.0 °F 38.1 °F 29.88 in West 7.4 mph 12.7 mph 51 % 0.00 in 309.0 W/m2 CLR
17:24 55.8 °F 38.4 °F 29.88 in West 0.9 mph 4.6 mph 52 % 0.00 in 294.0 W/m2 CLR
17:29 55.9 °F 38.0 °F 29.88 in WSW 3.1 mph 5.8 mph 51 % 0.00 in 267.0 W/m2 CLR
17:34 55.9 °F 38.0 °F 29.88 in SW 7.2 mph 11.5 mph 51 % 0.00 in 257.0 W/m2 CLR
17:39 55.7 °F 37.8 °F 29.88 in SW 3.9 mph 11.5 mph 51 % 0.00 in 243.0 W/m2 CLR
17:44 55.8 °F 38.4 °F 29.88 in SW 2.3 mph 3.5 mph 52 % 0.00 in 220.0 W/m2 CLR
17:49 55.3 °F 38.4 °F 29.88 in WSW 7.5 mph 10.4 mph 53 % 0.00 in 200.0 W/m2 CLR
17:54 55.0 °F 38.6 °F 29.88 in South 4.0 mph 7.0 mph 54 % 0.00 in 165.0 W/m2 CLR
17:59 54.8 °F 38.5 °F 29.88 in WSW 4.8 mph 11.5 mph 54 % 0.00 in 155.0 W/m2 CLR
18:04 55.0 °F 38.6 °F 29.88 in SSW 2.1 mph 15.0 mph 54 % 0.00 in 141.0 W/m2 CLR
18:09 54.8 °F 38.5 °F 29.88 in West 3.7 mph 11.0 mph 54 % 0.00 in 128.0 W/m2 FEW
18:14 54.7 °F 38.4 °F 29.88 in SW 4.7 mph 10.0 mph 54 % 0.00 in 111.0 W/m2 FEW
18:19 54.6 °F 38.3 °F 29.88 in WSW 4.4 mph 10.0 mph 54 % 0.00 in 93.0 W/m2 FEW
18:24 54.4 °F 38.6 °F 29.89 in West 5.3 mph 9.2 mph 55 % 0.00 in 77.0 W/m2 FEW
18:29 54.3 °F 38.5 °F 29.88 in WSW 4.0 mph 11.5 mph 55 % 0.00 in 63.0 W/m2 SCT
18:34 54.1 °F 38.3 °F 29.88 in SW 6.7 mph 11.5 mph 55 % 0.00 in 51.0 W/m2 SCT
18:39 53.9 °F 38.1 °F 29.88 in SW 5.9 mph 12.0 mph 55 % 0.00 in 37.0 W/m2 SCT
18:44 53.8 °F 38.5 °F 29.88 in WSW 0.6 mph 3.5 mph 56 % 0.00 in 28.0 W/m2 BKN
18:49 53.6 °F 38.3 °F 29.88 in West 0.2 mph 3.5 mph 56 % 0.00 in 25.0 W/m2 BKN
18:54 53.3 °F 38.0 °F 29.88 in WSW 1.0 mph   56 % 0.00 in 18.0 W/m2 BKN
18:59 52.9 °F 38.1 °F 29.88 in Calm     57 % 0.00 in 14.0 W/m2 BKN
19:04 52.7 °F 37.9 °F 29.88 in Calm   2.3 mph 57 % 0.00 in 9.0 W/m2 SCT
19:10 52.1 °F 37.8 °F 29.88 in Calm   1.2 mph 58 % 0.00 in 5.0 W/m2 SCT
19:15 51.7 °F 37.8 °F 29.88 in WSW 1.7 mph 3.5 mph 59 % 0.00 in 0.0 W/m2 SCT
19:20 51.5 °F 38.1 °F 29.88 in WSW 1.0 mph 6.0 mph 60 % 0.00 in 0.0 W/m2 OVC
19:25 51.3 °F 37.9 °F 29.89 in WSW 1.6 mph 4.0 mph 60 % 0.00 in 0.0 W/m2 SCT
19:30 51.2 °F 38.2 °F 29.89 in WSW 1.5 mph 2.3 mph 61 % 0.00 in 0.0 W/m2 SCT
19:35 50.9 °F 37.9 °F 29.89 in West 1.0 mph 3.5 mph 61 % 0.00 in 0.0 W/m2 SCT
19:40 50.8 °F 37.8 °F 29.89 in Calm     61 % 0.00 in 0.0 W/m2 SCT
19:45 50.6 °F 38.1 °F 29.89 in WSW 3.1 mph 5.8 mph 62 % 0.00 in 0.0 W/m2 SCT
19:50 50.4 °F 37.9 °F 29.89 in Calm   2.3 mph 62 % 0.00 in 0.0 W/m2 SCT
19:55 50.2 °F 38.1 °F 29.89 in WSW 0.5 mph 3.0 mph 63 % 0.00 in 0.0 W/m2 SCT
20:00 50.0 °F 37.9 °F 29.89 in Calm     63 % 0.00 in 0.0 W/m2 SCT
20:05 49.6 °F 37.9 °F 29.89 in Calm     64 % 0.00 in 0.0 W/m2 SCT
20:10 49.4 °F 37.7 °F 29.90 in Calm     64 % 0.00 in 0.0 W/m2 SCT
20:15 49.0 °F 37.7 °F 29.89 in Calm     65 % 0.00 in 0.0 W/m2 SCT
20:20 48.7 °F 37.8 °F 29.89 in Calm     66 % 0.00 in 0.0 W/m2 SCT
20:25 48.3 °F 37.5 °F 29.89 in Calm     66 % 0.00 in 0.0 W/m2 SCT
20:30 47.9 °F 37.5 °F 29.89 in Calm     67 % 0.00 in 0.0 W/m2 SCT
20:35 47.6 °F 37.2 °F 29.89 in Calm     67 % 0.00 in 0.0 W/m2 SCT
20:40 47.2 °F 37.2 °F 29.89 in Calm     68 % 0.00 in 0.0 W/m2 SCT
20:45 46.9 °F 37.3 °F 29.89 in Calm     69 % 0.00 in 0.0 W/m2 SCT
20:50 46.5 °F 36.9 °F 29.90 in Calm     69 % 0.00 in 0.0 W/m2 SCT
20:55 46.2 °F 37.0 °F 29.90 in Calm     70 % 0.00 in 0.0 W/m2 SCT
21:00 46.0 °F 37.1 °F 29.90 in Calm     71 % 0.00 in 0.0 W/m2 SCT
21:05 45.8 °F 36.9 °F 29.90 in Calm     71 % 0.00 in 0.0 W/m2 SCT
21:10 45.5 °F 37.0 °F 29.90 in Calm     72 % 0.00 in 0.0 W/m2 SCT
21:15 45.4 °F 36.9 °F 29.90 in Calm     72 % 0.00 in 0.0 W/m2 SCT
21:20 45.2 °F 37.1 °F 29.90 in Calm     73 % 0.00 in 0.0 W/m2 SCT
21:25 44.8 °F 36.7 °F 29.90 in Calm     73 % 0.00 in 0.0 W/m2 SCT
21:30 44.5 °F 36.4 °F 29.90 in Calm     73 % 0.00 in 0.0 W/m2 SCT
21:35 44.6 °F 36.8 °F 29.90 in Calm     74 % 0.00 in 0.0 W/m2 SCT
21:40 44.7 °F 36.9 °F 29.90 in Calm     74 % 0.00 in 0.0 W/m2 SCT
21:45 44.9 °F 37.1 °F 29.89 in WSW 0.2 mph 1.2 mph 74 % 0.00 in 0.0 W/m2 SCT
21:50 45.1 °F 37.0 °F 29.89 in Calm     73 % 0.00 in 0.0 W/m2 SCT
21:55 45.4 °F 37.2 °F 29.89 in WSW 0.5 mph 2.3 mph 73 % 0.00 in 0.0 W/m2 SCT
22:00 45.8 °F 37.3 °F 29.89 in Calm     72 % 0.00 in 0.0 W/m2 SCT
22:05 45.7 °F 37.2 °F 29.89 in WSW 0.5 mph 3.5 mph 72 % 0.00 in 0.0 W/m2 SCT
22:10 46.1 °F 37.6 °F 29.89 in Calm   2.3 mph 72 % 0.00 in 0.0 W/m2 SCT
22:15 46.7 °F 37.8 °F 29.90 in West 2.0 mph 5.8 mph 71 % 0.00 in 0.0 W/m2 SCT
22:20 47.2 °F 37.9 °F 29.90 in West 0.4 mph 2.0 mph 70 % 0.00 in 0.0 W/m2 SCT
22:25 47.3 °F 37.6 °F 29.89 in West 0.1 mph 1.2 mph 69 % 0.00 in 0.0 W/m2 SCT
22:30 47.1 °F 37.4 °F 29.89 in WSW 2.2 mph 2.3 mph 69 % 0.00 in 0.0 W/m2 SCT
22:35 47.0 °F 37.4 °F 29.89 in SW 0.5 mph 3.5 mph 69 % 0.00 in 0.0 W/m2 SCT
22:40 46.8 °F 37.2 °F 29.89 in WSW 0.7 mph 3.5 mph 69 % 0.00 in 0.0 W/m2 SCT
22:46 46.7 °F 37.1 °F 29.89 in Calm   2.3 mph 69 % 0.00 in 0.0 W/m2 SCT
22:51 46.4 °F 37.1 °F 29.89 in Calm     70 % 0.00 in 0.0 W/m2 SCT
22:56 46.1 °F 36.9 °F 29.89 in Calm     70 % 0.00 in 0.0 W/m2 SCT
23:01 45.5 °F 36.3 °F 29.89 in Calm     70 % 0.00 in 0.0 W/m2 SCT
23:06 45.0 °F 36.2 °F 29.89 in Calm     71 % 0.00 in 0.0 W/m2 SCT
23:11 45.0 °F 36.5 °F 29.89 in Calm     72 % 0.00 in 0.0 W/m2 SCT
23:16 44.8 °F 36.3 °F 29.89 in Calm     72 % 0.00 in 0.0 W/m2 SCT
23:21 44.7 °F 36.6 °F 29.90 in Calm     73 % 0.00 in 0.0 W/m2 SCT
23:26 44.5 °F 36.4 °F 29.90 in Calm     73 % 0.00 in 0.0 W/m2 SCT
23:31 44.3 °F 36.2 °F 29.90 in Calm     73 % 0.00 in 0.0 W/m2 SCT
23:36 44.1 °F 36.3 °F 29.90 in Calm     74 % 0.00 in 0.0 W/m2 SCT
23:41 43.8 °F 36.0 °F 29.90 in Calm     74 % 0.00 in 0.0 W/m2 SCT
23:46 43.4 °F 36.0 °F 29.90 in Calm     75 % 0.00 in 0.0 W/m2 SCT
23:51 43.1 °F 35.7 °F 29.90 in Calm     75 % 0.00 in 0.0 W/m2 SCT
23:56 43.0 °F 35.6 °F 29.91 in Calm     75 % 0.00 in 0.0 W/m2 SCT
Air Products Campus Weather
Compliments of Weather Underground - 3.5 mb